Time;durP1;ratioP1;P1;durP2;ratioP2;P2;SDS_P1;SDS_P2;PMS_P1;PMS_P2;Temp;Humidity;BMP_temperature;BMP_pressure;BME280_temperature;BME280_humidity;BME280_pressure;Samples;Min_cycle;Max_cycle;Signal;HPM_P1;HPM_P2
2021/10/23 00:03:02;;;;;;;3.70;1.40;;;17.60;59.40;;;;;;10348688;28;20222;-64
2021/10/23 00:08:25;;;;;;;3.83;1.30;;;17.60;59.40;;;;;;10351443;28;20198;-65
2021/10/23 00:13:47;;;;;;;4.10;1.30;;;17.60;59.50;;;;;;10370746;28;20218;-66
2021/10/23 00:19:09;;;;;;;4.93;1.50;;;17.60;59.30;;;;;;10360887;28;20250;-65
2021/10/23 00:24:33;;;;;;;3.27;1.17;;;17.60;59.90;;;;;;10361912;28;20222;-65
2021/10/23 00:29:55;;;;;;;3.37;1.23;;;17.60;59.30;;;;;;10330831;28;20195;-66
2021/10/23 00:35:17;;;;;;;3.33;1.30;;;17.60;59.30;;;;;;10331472;28;20219;-66
2021/10/23 00:40:41;;;;;;;3.70;1.30;;;17.60;59.10;;;;;;10350914;28;20229;-65
2021/10/23 00:46:03;;;;;;;2.53;1.17;;;17.60;59.20;;;;;;10370201;28;20226;-65
2021/10/23 00:51:25;;;;;;;3.20;1.20;;;17.60;59.70;;;;;;10331104;28;20191;-66
2021/10/23 00:56:49;;;;;;;4.47;1.70;;;17.60;59.20;;;;;;10368125;28;20221;-66
2021/10/23 01:02:11;;;;;;;3.90;1.13;;;17.60;59.20;;;;;;10370502;28;20218;-65
2021/10/23 01:07:35;;;;;;;6.13;1.80;;;17.60;59.20;;;;;;10331356;28;20199;-65
2021/10/23 01:12:59;;;;;;;5.80;1.27;;;17.60;59.20;;;;;;10329802;28;20690;-65
2021/10/23 01:18:21;;;;;;;5.47;1.57;;;17.60;59.30;;;;;;10331281;28;20213;-66
2021/10/23 01:23:45;;;;;;;4.20;1.30;;;17.50;59.20;;;;;;10354813;28;20221;-66
2021/10/23 01:29:10;;;;;;;4.33;1.33;;;17.50;59.20;;;;;;10336852;28;20195;-66
2021/10/23 01:34:32;;;;;;;3.63;1.10;;;17.60;59.20;;;;;;10329327;28;20242;-66
2021/10/23 01:39:56;;;;;;;4.03;1.07;;;17.60;59.20;;;;;;10342219;28;20223;-65
2021/10/23 01:45:18;;;;;;;4.30;1.40;;;17.50;59.10;;;;;;10327788;28;20222;-65
2021/10/23 01:50:40;;;;;;;3.70;1.40;;;17.50;59.10;;;;;;10328202;28;20697;-66
2021/10/23 01:56:04;;;;;;;3.20;1.60;;;17.60;58.90;;;;;;10341135;28;20234;-65
2021/10/23 02:01:27;;;;;;;3.73;1.10;;;17.60;59.00;;;;;;10361659;28;20218;-65
2021/10/23 02:06:49;;;;;;;3.33;1.03;;;17.50;58.90;;;;;;10366245;28;20215;-65
2021/10/23 02:12:12;;;;;;;3.67;1.47;;;17.50;58.80;;;;;;10342677;28;20195;-66
2021/10/23 02:17:35;;;;;;;4.13;1.23;;;17.60;58.80;;;;;;10366660;28;20214;-65
2021/10/23 02:22:57;;;;;;;4.30;1.40;;;17.60;58.90;;;;;;10355932;28;20214;-65
2021/10/23 02:28:21;;;;;;;3.67;1.20;;;17.60;58.90;;;;;;10345249;28;20203;-66
2021/10/23 02:33:43;;;;;;;3.97;1.20;;;17.50;58.80;;;;;;10336643;28;20219;-66
2021/10/23 02:39:05;;;;;;;4.73;1.40;;;17.50;58.90;;;;;;10336176;28;20217;-65
2021/10/23 02:44:28;;;;;;;3.47;1.10;;;17.50;58.90;;;;;;10334033;28;20270;-65
2021/10/23 02:49:50;;;;;;;3.53;1.17;;;17.50;58.80;;;;;;10335512;28;20203;-66
2021/10/23 02:55:13;;;;;;;4.23;1.27;;;17.50;58.80;;;;;;10335819;28;20226;-65
2021/10/23 03:00:36;;;;;;;4.00;1.00;;;17.50;58.90;;;;;;10335067;28;20226;-65
2021/10/23 03:05:58;;;;;;;5.97;1.37;;;17.50;58.90;;;;;;10368704;28;20215;-65
2021/10/23 03:11:21;;;;;;;2.80;1.00;;;17.50;58.90;;;;;;10347500;28;20678;-66
2021/10/23 03:16:44;;;;;;;3.73;1.17;;;17.50;58.80;;;;;;10334176;28;20226;-66
2021/10/23 03:22:06;;;;;;;2.87;0.90;;;17.50;58.80;;;;;;10333575;28;20743;-66
2021/10/23 03:27:28;;;;;;;2.20;1.10;;;17.50;58.90;;;;;;10335970;28;20218;-65
2021/10/23 03:32:52;;;;;;;2.80;0.97;;;17.50;58.70;;;;;;10362313;28;20217;-65
2021/10/23 03:38:14;;;;;;;3.67;1.20;;;17.50;58.60;;;;;;10350169;28;20293;-65
2021/10/23 03:43:36;;;;;;;3.80;1.10;;;17.50;58.80;;;;;;10393173;23;20230;-64
2021/10/23 03:49:00;;;;;;;5.37;1.13;;;17.50;58.80;;;;;;10369473;28;20194;-64
2021/10/23 03:54:22;;;;;;;3.77;1.23;;;17.50;58.80;;;;;;10377778;28;20234;-64
2021/10/23 03:59:44;;;;;;;6.30;1.60;;;17.50;58.80;;;;;;10378000;28;20206;-64
2021/10/23 04:05:09;;;;;;;4.07;1.30;;;17.50;58.80;;;;;;10381300;28;20616;-64
2021/10/23 04:10:31;;;;;;;5.00;1.60;;;17.50;58.70;;;;;;10385412;28;20685;-64
2021/10/23 04:15:53;;;;;;;2.40;1.07;;;17.50;58.80;;;;;;10392845;28;20225;-64
2021/10/23 04:21:16;;;;;;;5.57;1.47;;;17.50;58.80;;;;;;10376258;28;20308;-64
2021/10/23 04:26:39;;;;;;;4.97;1.37;;;17.50;58.80;;;;;;10372185;28;20222;-65
2021/10/23 04:32:01;;;;;;;5.43;1.27;;;17.50;58.80;;;;;;10370956;28;20198;-65
2021/10/23 04:37:24;;;;;;;5.40;1.50;;;17.40;58.70;;;;;;10390150;28;20218;-64
2021/10/23 04:42:47;;;;;;;4.00;1.03;;;17.40;58.40;;;;;;10386127;28;20291;-63
2021/10/23 04:48:09;;;;;;;4.77;1.23;;;17.50;58.40;;;;;;10391754;28;20194;-64
2021/10/23 04:53:32;;;;;;;3.23;1.13;;;17.60;58.40;;;;;;10372122;28;20217;-64
2021/10/23 04:58:54;;;;;;;4.33;1.40;;;17.70;57.50;;;;;;10391963;28;20684;-64
2021/10/23 05:04:16;;;;;;;4.53;1.20;;;17.70;57.40;;;;;;10394779;28;20213;-64
2021/10/23 05:09:40;;;;;;;2.97;1.00;;;17.70;57.70;;;;;;10408575;28;20193;-65
2021/10/23 05:15:02;;;;;;;3.77;1.30;;;17.70;57.70;;;;;;10383186;28;20229;-64
2021/10/23 05:20:25;;;;;;;2.77;1.03;;;17.60;57.80;;;;;;10371973;28;20230;-64
2021/10/23 05:25:48;;;;;;;3.27;1.30;;;17.60;58.00;;;;;;10372386;28;20656;-64
2021/10/23 05:31:10;;;;;;;4.50;1.20;;;17.60;58.20;;;;;;10398637;28;20205;-64
2021/10/23 05:36:32;;;;;;;4.33;1.40;;;17.60;58.10;;;;;;10383661;28;20229;-64
2021/10/23 05:41:56;;;;;;;4.17;1.13;;;17.60;58.20;;;;;;10405322;28;20482;-64
2021/10/23 05:47:18;;;;;;;2.87;1.07;;;17.50;58.30;;;;;;10386246;28;20225;-64
2021/10/23 05:52:40;;;;;;;3.10;1.00;;;17.50;58.40;;;;;;10377163;28;20197;-64
2021/10/23 05:58:05;;;;;;;3.80;1.20;;;17.50;58.60;;;;;;10397568;28;20206;-65
2021/10/23 06:03:29;;;;;;;3.17;1.17;;;17.50;58.60;;;;;;10377977;28;20575;-64
2021/10/23 06:08:51;;;;;;;3.30;1.30;;;17.50;58.80;;;;;;10391119;28;20288;-64
2021/10/23 06:14:15;;;;;;;2.77;1.10;;;17.50;58.70;;;;;;10409542;28;20209;-64
2021/10/23 06:19:38;;;;;;;3.50;1.23;;;17.50;58.30;;;;;;10406936;28;20217;-64
2021/10/23 06:25:00;;;;;;;3.93;1.27;;;17.60;58.00;;;;;;10407414;28;20348;-64
2021/10/23 06:30:24;;;;;;;4.33;1.30;;;17.70;57.50;;;;;;10405988;28;20242;-64
2021/10/23 06:35:46;;;;;;;4.43;1.30;;;17.70;57.50;;;;;;10406063;28;20684;-64
2021/10/23 06:41:08;;;;;;;3.97;1.10;;;17.60;57.80;;;;;;10408168;28;20217;-64
2021/10/23 06:46:32;;;;;;;2.27;1.00;;;17.60;58.00;;;;;;10407923;28;20234;-64
2021/10/23 06:51:54;;;;;;;4.90;1.33;;;17.60;58.10;;;;;;10406773;28;20201;-64
2021/10/23 06:57:16;;;;;;;3.30;1.20;;;17.60;58.10;;;;;;10410923;28;20220;-65
2021/10/23 07:02:40;;;;;;;3.00;1.07;;;17.60;58.30;;;;;;10404360;28;20221;-64
2021/10/23 07:08:03;;;;;;;4.27;1.43;;;17.60;58.40;;;;;;10414982;28;20202;-63
2021/10/23 07:13:25;;;;;;;4.03;1.30;;;17.50;58.70;;;;;;10378455;28;20222;-64
2021/10/23 07:18:48;;;;;;;4.13;1.20;;;17.60;59.00;;;;;;10373062;28;20195;-64
2021/10/23 07:24:10;;;;;;;2.63;1.30;;;17.50;59.20;;;;;;10383086;28;20210;-64
2021/10/23 07:29:33;;;;;;;5.70;1.10;;;17.60;59.50;;;;;;10408562;28;20193;-64
2021/10/23 07:34:56;;;;;;;3.93;1.20;;;17.60;58.90;;;;;;10404843;28;20221;-64
2021/10/23 07:40:18;;;;;;;3.00;1.00;;;17.70;58.50;;;;;;10402113;28;20202;-64
2021/10/23 07:45:42;;;;;;;6.07;1.70;;;17.70;58.30;;;;;;10412383;28;20225;-63
2021/10/23 07:51:06;;;;;;;2.60;1.30;;;17.70;58.20;;;;;;10407326;28;20197;-69
2021/10/23 07:56:29;;;;;;;2.60;1.20;;;17.70;58.30;;;;;;10422106;28;20252;-66
2021/10/23 08:01:51;;;;;;;10.77;2.60;;;17.80;59.20;;;;;;10411785;28;20225;-66
2021/10/23 08:07:14;;;;;;;11.20;2.30;;;17.80;58.90;;;;;;10419670;28;20217;-66
2021/10/23 08:12:36;;;;;;;11.10;2.80;;;17.80;58.70;;;;;;10423194;28;20194;-65
2021/10/23 08:18:01;;;;;;;12.47;1.97;;;17.80;59.00;;;;;;10407106;28;20601;-66
2021/10/23 08:23:25;;;;;;;8.57;2.07;;;17.70;59.40;;;;;;10420135;28;20569;-66
2021/10/23 08:28:48;;;;;;;8.90;1.80;;;17.80;59.70;;;;;;10426018;28;20201;-65
2021/10/23 08:34:10;;;;;;;7.77;1.93;;;17.80;60.20;;;;;;10411754;28;20218;-67
2021/10/23 08:39:33;;;;;;;9.47;1.97;;;17.70;59.70;;;;;;10419271;28;20205;-65
2021/10/23 08:44:59;;;;;;;8.33;1.80;;;17.70;61.10;;;;;;10397418;28;20225;-64
2021/10/23 08:50:23;;;;;;;4.10;1.63;;;17.60;60.40;;;;;;10404918;28;20194;-67
2021/10/23 08:55:47;;;;;;;4.20;1.47;;;17.60;60.90;;;;;;10398600;28;20217;-67
2021/10/23 09:01:11;;;;;;;4.80;1.37;;;17.60;60.50;;;;;;10408046;28;20213;-68
2021/10/23 09:06:35;;;;;;;6.07;1.73;;;17.60;60.60;;;;;;10395062;28;20221;-71
2021/10/23 09:11:59;;;;;;;5.47;1.30;;;17.70;60.80;;;;;;10402640;28;20229;-68
2021/10/23 09:17:21;;;;;;;3.90;1.17;;;17.70;61.40;;;;;;10390477;28;20222;-67
2021/10/23 09:22:45;;;;;;;3.77;1.27;;;17.80;61.00;;;;;;10372472;28;20723;-68
2021/10/23 09:28:11;;;;;;;4.88;1.52;;;17.80;61.30;;;;;;10398410;28;20444;-66
2021/10/23 09:33:33;;;;;;;42.43;13.00;;;18.10;61.60;;;;;;10399619;28;20224;-69
2021/10/23 09:39:00;;;;;;;58.63;21.30;;;18.10;62.00;;;;;;10416218;28;20209;-69
2021/10/23 09:44:23;;;;;;;47.47;15.87;;;18.20;62.30;;;;;;10421373;23;20231;-66
2021/10/23 09:50:04;;;;;;;47.23;16.77;;;18.30;62.90;;;;;;10404249;28;20200;-65
2021/10/23 09:55:28;;;;;;;42.50;14.67;;;18.40;63.60;;;;;;10402570;28;20213;-65
2021/10/23 10:00:53;;;;;;;36.43;13.07;;;18.20;62.50;;;;;;10396202;28;20218;-64
2021/10/23 10:06:15;;;;;;;34.23;13.47;;;18.20;62.20;;;;;;10397629;28;20214;-65
2021/10/23 10:11:38;;;;;;;31.70;11.57;;;18.10;62.10;;;;;;10401723;28;20224;-65
2021/10/23 10:17:02;;;;;;;27.97;10.77;;;18.10;62.10;;;;;;10395804;28;20217;-67
2021/10/23 10:22:25;;;;;;;42.33;17.30;;;18.10;62.70;;;;;;10398748;28;20265;-68
2021/10/23 10:27:48;;;;;;;42.43;18.27;;;18.10;62.50;;;;;;10385210;28;20229;-68
2021/10/23 10:33:25;;;;;;;62.80;23.17;;;18.20;62.70;;;;;;10392470;28;20201;-66
2021/10/23 10:39:05;;;;;;;73.47;27.10;;;18.20;62.60;;;;;;10401396;28;20197;-69
2021/10/23 10:44:28;;;;;;;68.13;26.47;;;18.10;62.50;;;;;;10378789;28;20233;-66
2021/10/23 10:49:56;;;;;;;66.20;28.17;;;18.10;62.60;;;;;;10370161;28;20510;-67
2021/10/23 10:55:19;;;;;;;68.27;26.33;;;18.60;61.00;;;;;;10361521;28;20687;-67
2021/10/23 11:01:12;;;;;;;64.67;24.83;;;18.30;61.70;;;;;;10359486;28;20223;-67
2021/10/23 11:06:52;;;;;;;61.27;23.43;;;18.20;61.90;;;;;;10354724;28;20223;-66
2021/10/23 11:12:21;;;;;;;56.80;22.83;;;18.20;62.30;;;;;;10360463;28;20240;-65
2021/10/23 11:17:43;;;;;;;61.53;23.77;;;18.10;62.50;;;;;;10353718;28;20791;-67
2021/10/23 11:23:07;;;;;;;64.13;26.57;;;18.10;62.60;;;;;;10361720;28;20457;-66
2021/10/23 11:28:29;;;;;;;51.97;20.03;;;18.20;62.50;;;;;;10366567;28;20209;-66
2021/10/23 11:33:51;;;;;;;44.77;19.73;;;18.10;62.50;;;;;;10358090;28;20233;-65
2021/10/23 11:39:21;;;;;;;38.67;17.27;;;18.10;62.80;;;;;;10341945;28;20195;-67
2021/10/23 11:44:44;;;;;;;39.97;16.63;;;18.30;62.60;;;;;;10348588;28;20227;-65
2021/10/23 11:50:07;;;;;;;40.87;16.27;;;18.30;62.70;;;;;;10345764;28;20206;-66
2021/10/23 11:55:39;;;;;;;44.77;15.80;;;18.30;62.90;;;;;;10386497;28;20237;-67
2021/10/23 12:01:03;;;;;;;34.53;14.23;;;18.30;62.60;;;;;;10382358;28;20333;-68
2021/10/23 12:06:27;;;;;;;23.93;10.90;;;18.20;62.30;;;;;;10393132;28;20301;-68
2021/10/23 12:12:04;;;;;;;25.43;9.50;;;18.30;61.90;;;;;;10378223;28;20205;-67
2021/10/23 12:17:26;;;;;;;19.77;8.53;;;18.30;61.00;;;;;;10396415;28;20214;-69
2021/10/23 12:22:48;;;;;;;24.27;10.13;;;18.20;61.30;;;;;;10394950;28;20230;-68
2021/10/23 12:28:12;;;;;;;17.77;7.80;;;18.30;61.60;;;;;;10367822;28;20597;-70
2021/10/23 12:34:04;;;;;;;18.77;7.33;;;18.30;61.20;;;;;;10390164;28;20229;-70
2021/10/23 12:39:28;;;;;;;16.40;7.30;;;18.30;59.90;;;;;;10398962;28;20198;-69
2021/10/23 12:44:53;;;;;;;14.23;6.47;;;18.20;60.60;;;;;;10377937;28;20222;-69
2021/10/23 12:50:19;;;;;;;21.73;8.23;;;18.20;60.90;;;;;;10385443;28;20201;-69
2021/10/23 12:55:41;;;;;;;11.83;5.13;;;18.30;62.20;;;;;;10390579;28;20296;-70
2021/10/23 13:01:05;;;;;;;10.77;4.30;;;18.30;61.70;;;;;;10391649;28;20206;-68
2021/10/23 13:06:27;;;;;;;10.90;4.63;;;18.30;61.10;;;;;;10366242;28;20222;-68
2021/10/23 13:11:49;;;;;;;11.07;5.10;;;18.20;60.40;;;;;;10393410;28;20206;-68
2021/10/23 13:17:12;;;;;;;8.03;4.00;;;18.20;61.30;;;;;;10389503;28;20214;-68
2021/10/23 13:22:36;;;;;;;13.37;3.80;;;18.20;60.70;;;;;;10391601;28;20225;-69
2021/10/23 13:27:58;;;;;;;9.73;3.60;;;18.10;60.00;;;;;;10364470;28;20233;-68
2021/10/23 13:33:22;;;;;;;8.03;3.00;;;18.10;59.70;;;;;;10366627;28;20202;-67
2021/10/23 13:38:44;;;;;;;7.70;3.00;;;18.10;59.40;;;;;;10377484;28;20577;-68
2021/10/23 13:44:07;;;;;;;7.67;3.03;;;18.00;59.50;;;;;;10385144;28;20237;-69
2021/10/23 13:49:30;;;;;;;4.23;2.40;;;18.00;59.80;;;;;;10370427;28;20712;-69
2021/10/23 13:54:52;;;;;;;5.93;2.43;;;18.00;59.80;;;;;;10393078;28;20206;-68
2021/10/23 14:00:14;;;;;;;6.57;2.17;;;18.00;60.20;;;;;;10388290;28;20209;-68
2021/10/23 14:05:38;;;;;;;7.37;2.27;;;18.00;60.30;;;;;;10370812;28;20221;-67
2021/10/23 14:11:00;;;;;;;4.90;2.27;;;18.00;59.70;;;;;;10375781;28;20194;-69
2021/10/23 14:16:22;;;;;;;6.73;2.40;;;17.90;59.90;;;;;;10376967;28;20225;-67
2021/10/23 14:21:46;;;;;;;7.03;2.33;;;18.00;60.40;;;;;;10395147;28;20209;-67
2021/10/23 14:27:13;;;;;;;6.03;2.03;;;18.00;60.60;;;;;;10392370;28;20428;-69
2021/10/23 14:32:35;;;;;;;7.93;2.10;;;18.00;60.40;;;;;;10398974;28;20221;-68
2021/10/23 14:37:58;;;;;;;7.50;2.20;;;18.00;60.00;;;;;;10359938;28;20222;-68
2021/10/23 14:43:21;;;;;;;5.37;2.13;;;18.00;60.40;;;;;;10364887;28;20229;-67
2021/10/23 14:48:43;;;;;;;4.73;2.27;;;17.90;60.80;;;;;;10382284;28;20202;-68
2021/10/23 14:54:06;;;;;;;5.13;1.90;;;17.90;60.10;;;;;;10387569;28;20272;-68
2021/10/23 14:59:28;;;;;;;3.70;1.83;;;17.90;60.50;;;;;;10399140;28;20202;-69
2021/10/23 15:04:50;;;;;;;4.10;1.70;;;18.00;60.30;;;;;;10374599;28;20226;-68
2021/10/23 15:10:14;;;;;;;8.80;1.93;;;17.90;60.20;;;;;;10393313;28;20190;-68
2021/10/23 15:15:36;;;;;;;4.07;1.93;;;17.90;60.40;;;;;;10368777;28;20206;-68
2021/10/23 15:20:59;;;;;;;6.50;2.40;;;17.90;60.20;;;;;;10377486;28;20201;-68
2021/10/23 15:26:22;;;;;;;5.33;1.93;;;17.90;59.90;;;;;;10387934;28;20218;-68
2021/10/23 15:31:44;;;;;;;5.07;2.13;;;17.90;60.10;;;;;;10371005;28;20571;-68
2021/10/23 15:37:11;;;;;;;8.17;3.30;;;17.90;60.00;;;;;;10396016;28;20602;-70
2021/10/23 15:42:34;;;;;;;7.53;3.50;;;17.90;59.70;;;;;;10387411;28;20232;-65
2021/10/23 15:47:56;;;;;;;5.43;3.10;;;17.90;60.10;;;;;;10424372;23;20236;-70
2021/10/23 15:53:18;;;;;;;9.83;3.50;;;17.90;60.40;;;;;;10401032;28;20197;-69
2021/10/23 15:58:42;;;;;;;6.07;2.63;;;17.90;59.90;;;;;;10396304;28;20217;-69
2021/10/23 16:04:04;;;;;;;5.07;2.30;;;17.90;60.00;;;;;;10385832;28;20225;-69
2021/10/23 16:09:27;;;;;;;4.83;1.93;;;17.90;59.90;;;;;;10392092;28;20199;-69
2021/10/23 16:14:50;;;;;;;4.43;2.20;;;17.90;59.90;;;;;;10374783;28;20297;-69
2021/10/23 16:20:12;;;;;;;4.53;1.80;;;17.90;60.30;;;;;;10383194;28;20194;-69
2021/10/23 16:25:34;;;;;;;4.77;1.80;;;17.90;60.10;;;;;;10366345;28;20230;-69
2021/10/23 16:30:58;;;;;;;4.20;2.07;;;17.90;59.90;;;;;;10364172;28;20206;-69
2021/10/23 16:36:20;;;;;;;3.37;1.87;;;17.90;60.10;;;;;;10361539;28;20218;-70
2021/10/23 16:41:43;;;;;;;4.20;1.63;;;17.90;60.10;;;;;;10352379;28;20219;-70
2021/10/23 16:47:06;;;;;;;4.20;1.60;;;17.90;60.00;;;;;;10376067;28;20297;-70
2021/10/23 16:52:28;;;;;;;3.17;1.60;;;17.90;59.60;;;;;;10366974;28;20198;-68
2021/10/23 16:57:51;;;;;;;5.73;2.57;;;17.90;60.30;;;;;;10380628;28;20224;-68
2021/10/23 17:03:14;;;;;;;5.83;3.20;;;18.00;60.00;;;;;;10373440;28;20229;-69
2021/10/23 17:08:36;;;;;;;6.20;2.83;;;18.00;59.10;;;;;;10372807;28;20245;-69
2021/10/23 17:13:58;;;;;;;10.27;3.10;;;18.10;59.90;;;;;;10357184;28;20195;-69
2021/10/23 17:19:22;;;;;;;6.38;2.75;;;18.10;60.50;;;;;;10369380;28;20438;-67
2021/10/23 17:24:44;;;;;;;8.53;4.23;;;18.10;60.90;;;;;;10367387;28;20442;-67
2021/10/23 17:30:07;;;;;;;8.03;3.80;;;18.90;58.80;;;;;;10361094;28;20835;-67
2021/10/23 17:35:30;;;;;;;8.83;4.33;;;18.40;60.20;;;;;;10378159;28;20210;-67
2021/10/23 17:40:54;;;;;;;8.90;3.73;;;18.20;60.30;;;;;;10377221;28;20697;-67
2021/10/23 17:46:16;;;;;;;7.03;3.23;;;18.10;60.00;;;;;;10366540;28;20237;-67
2021/10/23 17:51:40;;;;;;;8.95;4.35;;;18.10;59.80;;;;;;10363094;28;20427;-68
2021/10/23 17:57:02;;;;;;;7.13;4.00;;;18.80;57.30;;;;;;10372219;28;20226;-67
2021/10/23 18:02:25;;;;;;;9.47;4.50;;;18.40;58.80;;;;;;10373627;28;20312;-67
2021/10/23 18:07:51;;;;;;;7.17;4.77;;;18.20;59.20;;;;;;10383262;28;20222;-67
2021/10/23 18:13:16;;;;;;;8.47;5.50;;;18.10;59.80;;;;;;10389761;28;20197;-67
2021/10/23 18:18:39;;;;;;;11.30;5.57;;;18.00;59.30;;;;;;10368855;28;20237;-68
2021/10/23 18:24:03;;;;;;;8.83;4.90;;;18.00;59.80;;;;;;10370529;28;20218;-68
2021/10/23 18:29:25;;;;;;;9.67;4.63;;;18.00;59.90;;;;;;10328964;28;20211;-68
2021/10/23 18:34:47;;;;;;;5.37;4.00;;;18.00;59.90;;;;;;10333501;28;20229;-68
2021/10/23 18:40:11;;;;;;;6.07;3.80;;;18.00;60.30;;;;;;10336836;28;20206;-68
2021/10/23 18:45:34;;;;;;;8.13;3.50;;;17.90;60.10;;;;;;10330232;28;20246;-68
2021/10/23 18:50:56;;;;;;;6.10;3.77;;;17.90;59.80;;;;;;10327535;28;20229;-68
2021/10/23 18:56:20;;;;;;;6.00;3.53;;;17.90;60.10;;;;;;10327105;28;20214;-68
2021/10/23 19:01:44;;;;;;;6.40;3.20;;;17.90;59.90;;;;;;10329390;28;20187;-68
2021/10/23 19:07:07;;;;;;;7.10;3.57;;;17.90;59.50;;;;;;10355460;28;20223;-68
2021/10/23 19:12:30;;;;;;;6.97;3.50;;;17.90;59.60;;;;;;10343454;28;20195;-68
2021/10/23 19:17:53;;;;;;;8.27;3.17;;;17.90;59.50;;;;;;10342893;28;20823;-68
2021/10/23 19:23:16;;;;;;;6.67;3.43;;;17.90;59.40;;;;;;10350040;28;20210;-68
2021/10/23 19:28:40;;;;;;;5.40;2.70;;;17.90;59.50;;;;;;10345228;28;20219;-68
2021/10/23 19:34:02;;;;;;;4.80;2.63;;;17.90;59.40;;;;;;10340911;28;20190;-68
2021/10/23 19:39:25;;;;;;;4.60;3.07;;;17.80;59.20;;;;;;10340415;28;20198;-68
2021/10/23 19:44:48;;;;;;;6.70;2.63;;;17.90;59.40;;;;;;10333750;28;20227;-68
2021/10/23 19:50:11;;;;;;;5.47;2.53;;;17.90;59.30;;;;;;10366682;28;20574;-68
2021/10/23 19:55:33;;;;;;;6.53;2.97;;;17.80;58.90;;;;;;10345205;28;20234;-68
2021/10/23 20:00:57;;;;;;;3.77;2.53;;;17.80;59.20;;;;;;10340307;28;20223;-69
2021/10/23 20:06:19;;;;;;;3.60;2.20;;;17.90;59.60;;;;;;10336345;28;20245;-68
2021/10/23 20:11:41;;;;;;;3.77;2.43;;;17.80;59.20;;;;;;10346750;28;20203;-68
2021/10/23 20:17:05;;;;;;;3.67;2.17;;;17.80;59.10;;;;;;10345413;28;20226;-68
2021/10/23 20:22:27;;;;;;;4.17;1.93;;;17.90;59.40;;;;;;10348568;28;20218;-68
2021/10/23 20:27:49;;;;;;;4.07;2.30;;;17.80;59.00;;;;;;10338337;28;20276;-68
2021/10/23 20:33:13;;;;;;;5.37;2.33;;;17.80;58.80;;;;;;10339093;28;20199;-69
2021/10/23 20:38:35;;;;;;;3.87;2.10;;;17.90;59.20;;;;;;10346369;28;20716;-68
2021/10/23 20:43:58;;;;;;;4.67;2.37;;;17.80;58.40;;;;;;10345026;28;20231;-68
2021/10/23 20:49:21;;;;;;;3.63;1.80;;;17.80;58.10;;;;;;10346223;28;20215;-68
2021/10/23 20:54:44;;;;;;;6.13;2.43;;;17.70;58.30;;;;;;10358894;28;20220;-68
2021/10/23 21:00:07;;;;;;;3.33;2.20;;;17.70;58.70;;;;;;10349532;28;20205;-68
2021/10/23 21:05:31;;;;;;;2.87;2.00;;;17.60;58.90;;;;;;10411305;28;20217;-68
2021/10/23 21:10:53;;;;;;;4.27;2.50;;;17.60;59.00;;;;;;10349216;28;20203;-68
2021/10/23 21:16:15;;;;;;;4.00;2.37;;;17.50;59.10;;;;;;10369717;28;20214;-69
2021/10/23 21:21:38;;;;;;;3.17;2.23;;;17.60;59.90;;;;;;10391798;28;20201;-69
2021/10/23 21:27:01;;;;;;;7.00;2.87;;;17.50;59.40;;;;;;10371312;28;20587;-68
2021/10/23 21:32:23;;;;;;;5.50;2.60;;;17.50;59.50;;;;;;10366359;28;20194;-68
2021/10/23 21:37:47;;;;;;;4.80;2.70;;;17.50;59.70;;;;;;10394352;28;20224;-68
2021/10/23 21:43:09;;;;;;;4.57;2.70;;;17.50;59.50;;;;;;10391033;28;20229;-68
2021/10/23 21:48:32;;;;;;;5.10;2.23;;;17.40;59.40;;;;;;10416936;23;20221;-66
2021/10/23 21:53:55;;;;;;;3.60;2.13;;;17.40;59.60;;;;;;10370791;28;20199;-66
2021/10/23 21:59:18;;;;;;;5.13;2.23;;;17.40;59.40;;;;;;10326131;28;20612;-66
2021/10/23 22:04:40;;;;;;;3.13;2.10;;;17.40;59.30;;;;;;10327563;28;20245;-67
2021/10/23 22:10:04;;;;;;;4.50;1.90;;;17.40;59.30;;;;;;10366456;28;20218;-67
2021/10/23 22:15:26;;;;;;;3.83;1.97;;;17.40;59.40;;;;;;10353702;28;20194;-66
2021/10/23 22:20:50;;;;;;;2.80;1.90;;;17.40;59.50;;;;;;10341951;28;20574;-67
2021/10/23 22:26:15;;;;;;;2.57;1.83;;;17.30;59.50;;;;;;10326783;28;20301;-67
2021/10/23 22:31:38;;;;;;;2.40;1.87;;;17.30;59.60;;;;;;10373219;28;20296;-66
2021/10/23 22:37:00;;;;;;;3.93;1.80;;;17.30;59.80;;;;;;10384703;28;20199;-67
2021/10/23 22:42:24;;;;;;;3.97;1.83;;;17.40;59.60;;;;;;10369889;28;20210;-66
2021/10/23 22:47:46;;;;;;;4.33;2.10;;;17.40;59.30;;;;;;10373737;28;20207;-66
2021/10/23 22:53:09;;;;;;;2.87;1.87;;;17.30;59.10;;;;;;10373421;28;20194;-66
2021/10/23 22:58:32;;;;;;;4.33;1.97;;;17.30;59.20;;;;;;10373651;28;20308;-66
2021/10/23 23:03:54;;;;;;;3.17;2.07;;;17.30;58.60;;;;;;10370923;28;20217;-67
2021/10/23 23:09:16;;;;;;;3.87;2.37;;;17.40;58.30;;;;;;10371480;28;20704;-67
2021/10/23 23:14:40;;;;;;;3.23;2.37;;;17.40;58.10;;;;;;10369976;28;20195;-67
2021/10/23 23:20:02;;;;;;;3.43;2.40;;;17.40;58.20;;;;;;10341279;28;20223;-67
2021/10/23 23:25:24;;;;;;;3.53;2.20;;;17.40;57.90;;;;;;10358548;28;20218;-67
2021/10/23 23:30:49;;;;;;;4.70;2.27;;;17.30;57.90;;;;;;10362221;28;20583;-67
2021/10/23 23:36:13;;;;;;;6.17;2.30;;;17.40;58.00;;;;;;10372442;28;20291;-67
2021/10/23 23:41:35;;;;;;;4.23;2.10;;;17.40;58.00;;;;;;10366860;28;20685;-67
2021/10/23 23:46:59;;;;;;;3.43;2.00;;;17.40;57.80;;;;;;10368693;28;20302;-67
2021/10/23 23:52:21;;;;;;;3.10;1.97;;;17.40;57.80;;;;;;10370697;28;20222;-67
2021/10/23 23:57:43;;;;;;;3.30;2.30;;;17.30;57.90;;;;;;10353919;28;20668;-67
